Time;durP1;ratioP1;P1;durP2;ratioP2;P2;SDS_P1;SDS_P2;PMS_P1;PMS_P2;Temp;Humidity;BMP_temperature;BMP_pressure;BME280_temperature;BME280_humidity;BME280_pressure;Samples;Min_cycle;Max_cycle;Signal;HPM_P1;HPM_P2
2021/07/21 00:00:48;;;;;;;7.00;6.30;;;19.10;1.00;;;;;;5131436;27;20519;-55
2021/07/21 00:03:13;;;;;;;7.20;6.50;;;19.00;1.00;;;;;;5125586;27;20545;-54
2021/07/21 00:05:40;;;;;;;15.07;6.00;;;19.00;1.00;;;;;;5128296;27;20919;-53
2021/07/21 00:08:06;;;;;;;7.00;6.30;;;19.00;1.00;;;;;;5131699;27;20657;-54
2021/07/21 00:10:32;;;;;;;7.23;6.03;;;18.90;1.00;;;;;;5132191;27;20435;-55
2021/07/21 00:20:05;;;;;;;8.00;6.17;;;18.90;1.00;;;;;;5127071;27;20467;-55
2021/07/21 00:21:14;;;;;;;10.53;6.40;;;18.90;1.00;;;;;;5121921;27;20431;-53
2021/07/21 00:23:40;;;;;;;10.73;6.20;;;18.90;1.00;;;;;;5126311;27;20439;-53
2021/07/21 00:26:07;;;;;;;7.80;6.30;;;18.90;1.00;;;;;;5132147;27;20419;-53
2021/07/21 00:28:34;;;;;;;6.57;5.33;;;18.90;1.00;;;;;;5130703;27;20507;-52
2021/07/21 00:31:01;;;;;;;5.90;5.30;;;18.90;1.00;;;;;;5127395;27;20444;-54
2021/07/21 00:33:26;;;;;;;6.53;5.90;;;18.90;1.00;;;;;;5127134;27;20550;-53
2021/07/21 00:35:52;;;;;;;8.20;6.23;;;18.90;1.00;;;;;;5128236;27;20557;-54
2021/07/21 00:38:17;;;;;;;8.10;6.10;;;18.90;1.00;;;;;;5131425;27;20637;-55
2021/07/21 00:40:43;;;;;;;7.20;6.00;;;18.80;1.00;;;;;;5129725;27;20177;-55
2021/07/21 00:43:09;;;;;;;5.90;5.40;;;18.80;1.00;;;;;;5127163;27;20182;-54
2021/07/21 00:45:35;;;;;;;7.03;6.13;;;18.80;1.00;;;;;;5132401;27;20216;-54
2021/07/21 00:48:01;;;;;;;5.93;5.10;;;;;;;;;;5126476;27;20453;-53
2021/07/21 00:50:27;;;;;;;6.33;5.70;;;18.70;1.00;;;;;;5124092;27;20197;-53
2021/07/21 00:52:53;;;;;;;6.73;6.00;;;18.70;1.00;;;;;;5129898;27;20467;-54
2021/07/21 00:55:19;;;;;;;7.60;6.20;;;18.80;1.00;;;;;;5130271;27;21855;-54
2021/07/21 00:57:45;;;;;;;8.97;5.80;;;18.80;1.00;;;;;;5108363;27;20470;-53
2021/07/21 01:00:17;;;;;;;5.73;5.10;;;18.70;1.00;;;;;;5128832;27;20214;-53
2021/07/21 01:02:45;;;;;;;6.80;5.50;;;18.70;1.00;;;;;;5129560;27;20434;-52
2021/07/21 01:05:14;;;;;;;7.40;5.83;;;18.60;1.00;;;;;;5124684;27;21025;-54
2021/07/21 01:07:43;;;;;;;7.67;6.00;;;18.70;1.00;;;;;;5132083;27;20438;-55
2021/07/21 01:10:10;;;;;;;7.67;5.80;;;18.70;1.00;;;;;;5128202;27;20447;-55
2021/07/21 01:12:53;;;;;;;10.63;5.67;;;18.70;1.00;;;;;;5131329;27;20525;-56
2021/07/21 01:15:24;;;;;;;6.77;6.03;;;18.70;1.00;;;;;;5129820;27;20431;-53
2021/07/21 01:17:57;;;;;;;6.80;6.17;;;18.60;1.00;;;;;;5129086;27;20455;-53
2021/07/21 01:20:41;;;;;;;6.87;6.13;;;18.60;1.00;;;;;;5130551;27;20438;-54
2021/07/21 01:23:39;;;;;;;7.30;6.17;;;18.50;1.00;;;;;;5131608;27;20445;-55
2021/07/21 01:26:15;;;;;;;5.90;5.20;;;18.50;1.00;;;;;;5128446;27;20807;-56
2021/07/21 01:28:42;;;;;;;7.70;5.70;;;18.50;1.00;;;;;;5092140;27;20477;-54
2021/07/21 01:31:11;;;;;;;7.63;5.80;;;18.50;1.00;;;;;;5129180;27;20944;-54
2021/07/21 01:33:39;;;;;;;9.30;6.40;;;18.50;1.00;;;;;;5125335;27;20502;-53
2021/07/21 01:36:13;;;;;;;7.20;6.50;;;18.60;1.00;;;;;;5128195;27;20589;-56
2021/07/21 01:38:45;;;;;;;6.83;5.50;;;18.60;1.00;;;;;;5129433;27;20439;-53
2021/07/21 01:41:20;;;;;;;6.60;5.87;;;18.60;1.00;;;;;;5129611;27;20431;-56
2021/07/21 01:43:49;;;;;;;5.97;5.47;;;18.60;1.00;;;;;;5128140;27;20450;-53
2021/07/21 01:46:18;;;;;;;6.63;6.03;;;18.60;1.00;;;;;;5129800;27;20936;-55
2021/07/21 01:48:46;;;;;;;6.90;6.20;;;18.40;1.00;;;;;;5130351;27;20431;-55
2021/07/21 01:51:12;;;;;;;8.70;6.23;;;18.70;1.00;;;;;;5126543;27;20788;-58
2021/07/21 01:53:39;;;;;;;7.10;5.90;;;18.80;1.00;;;;;;5126365;27;20527;-53
2021/07/21 01:56:07;;;;;;;6.07;5.57;;;18.70;1.00;;;;;;5095756;27;20444;-54
2021/07/21 01:58:35;;;;;;;9.77;6.60;;;18.70;1.00;;;;;;5129030;27;20431;-53
2021/07/21 02:01:01;;;;;;;10.53;6.53;;;18.70;1.00;;;;;;5124590;27;20517;-55
2021/07/21 02:03:28;;;;;;;6.70;6.00;;;19.70;1.00;;;;;;5125433;27;20542;-54
2021/07/21 02:06:00;;;;;;;6.40;5.80;;;18.80;1.00;;;;;;5108360;27;20193;-54
2021/07/21 02:08:26;;;;;;;7.17;6.57;;;18.70;1.00;;;;;;5127659;27;20434;-55
2021/07/21 02:10:53;;;;;;;6.47;5.90;;;18.70;1.00;;;;;;5126946;27;21032;-56
2021/07/21 02:13:19;;;;;;;7.80;6.27;;;18.70;1.00;;;;;;5129262;27;20447;-55
2021/07/21 02:15:46;;;;;;;6.33;5.30;;;18.70;1.00;;;;;;5129532;27;20450;-54
2021/07/21 02:18:16;;;;;;;5.80;5.30;;;18.70;1.00;;;;;;5129854;27;20217;-55
2021/07/21 02:20:44;;;;;;;6.37;5.60;;;18.70;1.00;;;;;;5126448;27;20521;-55
2021/07/21 02:23:10;;;;;;;6.63;5.93;;;18.60;1.00;;;;;;5131262;27;20446;-54
2021/07/21 02:25:37;;;;;;;5.73;5.07;;;18.60;1.00;;;;;;5131857;27;20919;-53
2021/07/21 02:28:02;;;;;;;7.90;6.37;;;18.60;1.00;;;;;;5132215;27;20449;-54
2021/07/21 02:30:28;;;;;;;7.50;6.10;;;18.60;1.00;;;;;;5134862;27;20430;-53
2021/07/21 02:33:01;;;;;;;5.70;5.20;;;18.60;1.00;;;;;;5129135;27;20182;-56
2021/07/21 02:35:26;;;;;;;6.87;5.93;;;18.70;1.00;;;;;;5128017;27;20178;-54
2021/07/21 02:37:52;;;;;;;6.97;5.97;;;18.70;1.00;;;;;;5134384;27;20467;-55
2021/07/21 02:40:18;;;;;;;8.70;6.07;;;18.70;1.00;;;;;;5130973;27;20277;-55
2021/07/21 02:42:44;;;;;;;6.50;5.90;;;18.70;1.00;;;;;;5115194;27;20189;-53
2021/07/21 02:45:10;;;;;;;6.83;6.00;;;18.60;1.00;;;;;;5131047;27;20435;-53
2021/07/21 02:47:36;;;;;;;8.90;5.60;;;18.60;1.00;;;;;;5126881;27;20204;-58
2021/07/21 02:50:02;;;;;;;5.97;5.23;;;18.60;1.00;;;;;;5131628;27;20438;-53
2021/07/21 02:52:46;;;;;;;6.97;6.17;;;18.70;1.00;;;;;;5139618;27;20220;-53
2021/07/21 02:55:29;;;;;;;6.63;5.70;;;18.70;1.00;;;;;;5144817;27;20447;-54
2021/07/21 02:58:09;;;;;;;6.20;5.40;;;18.60;1.00;;;;;;5130530;27;20463;-56
2021/07/21 03:00:35;;;;;;;5.60;5.20;;;18.60;1.00;;;;;;5134145;27;20446;-57
2021/07/21 03:03:05;;;;;;;6.50;5.80;;;18.60;1.00;;;;;;5133060;27;20868;-53
2021/07/21 03:05:33;;;;;;;8.93;6.13;;;18.60;1.00;;;;;;5132596;27;20547;-54
2021/07/21 03:08:00;;;;;;;7.63;5.30;;;18.60;1.00;;;;;;5134162;27;20430;-54
2021/07/21 03:10:27;;;;;;;7.10;5.40;;;18.60;1.00;;;;;;5130797;27;20455;-57
2021/07/21 03:13:03;;;;;;;7.73;5.97;;;18.60;1.00;;;;;;5131774;27;20439;-54
2021/07/21 03:15:33;;;;;;;7.87;6.37;;;18.60;1.00;;;;;;5125385;27;20451;-54
2021/07/21 03:18:00;;;;;;;7.03;6.27;;;18.50;1.00;;;;;;5134790;27;20852;-55
2021/07/21 03:20:27;;;;;;;10.03;6.60;;;18.50;1.00;;;;;;5109590;27;20507;-55
2021/07/21 03:22:55;;;;;;;6.30;5.80;;;18.50;1.00;;;;;;5115230;27;20433;-55
2021/07/21 03:25:22;;;;;;;6.00;5.43;;;18.50;1.00;;;;;;5133811;27;20888;-56
2021/07/21 03:27:50;;;;;;;7.57;6.20;;;18.50;1.00;;;;;;5129259;27;20537;-55
2021/07/21 03:30:16;;;;;;;7.57;5.70;;;18.40;1.00;;;;;;5129343;27;20442;-55
2021/07/21 03:32:43;;;;;;;7.43;4.77;;;18.40;1.00;;;;;;5126498;27;20443;-53
2021/07/21 03:35:10;;;;;;;6.73;5.60;;;18.40;1.00;;;;;;5120966;27;20951;-53
2021/07/21 03:37:39;;;;;;;12.30;5.93;;;18.50;1.00;;;;;;5130098;27;20458;-53
2021/07/21 03:40:06;;;;;;;7.90;5.53;;;18.50;1.00;;;;;;5131488;27;20920;-53
2021/07/21 03:42:34;;;;;;;7.20;5.60;;;18.50;1.00;;;;;;5129229;27;20466;-54
2021/07/21 03:45:03;;;;;;;7.23;6.13;;;18.60;1.00;;;;;;5132102;27;20438;-52
2021/07/21 03:47:29;;;;;;;5.33;4.83;;;16.30;1.00;;;;;;5131924;27;20455;-55
2021/07/21 03:49:55;;;;;;;6.43;5.30;;;18.60;1.00;;;;;;5130362;27;20435;-52
2021/07/21 03:52:23;;;;;;;5.60;5.10;;;19.60;1.00;;;;;;5112410;27;20565;-55
2021/07/21 03:54:48;;;;;;;5.07;4.60;;;18.70;1.00;;;;;;5128675;27;20455;-52
2021/07/21 03:57:17;;;;;;;6.17;5.67;;;18.80;1.00;;;;;;5130500;27;20565;-54
2021/07/21 03:59:43;;;;;;;6.10;5.30;;;18.70;1.00;;;;;;5133428;27;20269;-54
2021/07/21 04:02:10;;;;;;;5.63;5.03;;;18.60;1.00;;;;;;5130408;27;20458;-53
2021/07/21 04:04:39;;;;;;;7.40;5.43;;;18.60;1.00;;;;;;5130184;27;20966;-55
2021/07/21 04:07:06;;;;;;;6.43;5.83;;;18.60;1.00;;;;;;5132349;27;20450;-54
2021/07/21 04:09:34;;;;;;;5.30;4.50;;;18.60;1.00;;;;;;5129527;27;20474;-55
2021/07/21 04:12:00;;;;;;;5.87;5.03;;;18.60;1.00;;;;;;5131928;27;20455;-55
2021/07/21 04:14:27;;;;;;;5.63;5.10;;;18.60;1.00;;;;;;5131622;27;20507;-54
2021/07/21 04:16:54;;;;;;;7.10;5.13;;;18.60;1.00;;;;;;5111740;27;20561;-55
2021/07/21 04:19:22;;;;;;;8.77;5.60;;;21.50;1.00;;;;;;5131447;27;20967;-55
2021/07/21 04:21:49;;;;;;;5.13;4.67;;;18.70;1.00;;;;;;5131196;27;20422;-56
2021/07/21 04:24:16;;;;;;;6.13;4.93;;;18.80;1.00;;;;;;5132401;27;20992;-55
2021/07/21 04:26:43;;;;;;;8.17;5.17;;;18.80;1.00;;;;;;5132086;27;20526;-55
2021/07/21 04:29:18;;;;;;;6.70;4.63;;;18.80;1.00;;;;;;5132244;27;20838;-57
2021/07/21 04:31:45;;;;;;;13.57;5.50;;;18.80;1.00;;;;;;5130300;27;20960;-53
2021/07/21 04:34:12;;;;;;;6.77;5.20;;;18.80;1.00;;;;;;5131167;27;20975;-55
2021/07/21 04:36:40;;;;;;;8.13;5.20;;;19.00;1.00;;;;;;5132393;27;20462;-54
2021/07/21 04:39:07;;;;;;;5.80;5.27;;;19.00;1.00;;;;;;5132263;27;20446;-56
2021/07/21 04:41:33;;;;;;;7.50;5.07;;;19.20;1.00;;;;;;5132308;27;20427;-54
2021/07/21 04:44:02;;;;;;;5.97;5.40;;;19.20;1.00;;;;;;5131911;27;20438;-56
2021/07/21 04:46:30;;;;;;;5.13;4.73;;;19.20;1.00;;;;;;5128025;27;20457;-55
2021/07/21 04:48:56;;;;;;;9.13;5.00;;;19.30;1.00;;;;;;5130863;27;20445;-55
2021/07/21 04:51:23;;;;;;;10.37;5.00;;;19.30;1.00;;;;;;5128460;27;21013;-55
2021/07/21 04:53:54;;;;;;;6.70;5.30;;;19.40;1.00;;;;;;5126947;27;20439;-54
2021/07/21 04:56:19;;;;;;;8.87;5.17;;;19.50;1.00;;;;;;5132098;27;20461;-55
2021/07/21 04:58:45;;;;;;;8.00;6.00;;;19.30;1.00;;;;;;5128538;27;20932;-55
2021/07/21 05:01:14;;;;;;;6.03;5.53;;;19.40;1.00;;;;;;5131374;27;20185;-53
2021/07/21 05:03:40;;;;;;;6.87;5.50;;;19.60;1.00;;;;;;5110507;27;20173;-54
2021/07/21 05:06:05;;;;;;;6.23;5.63;;;19.60;1.00;;;;;;5131305;27;20445;-54
2021/07/21 05:08:31;;;;;;;7.47;5.10;;;19.50;1.00;;;;;;5129093;27;20189;-54
2021/07/21 05:10:56;;;;;;;6.57;5.33;;;19.50;1.00;;;;;;5131567;27;20260;-53
2021/07/21 05:13:22;;;;;;;7.90;5.30;;;19.70;1.00;;;;;;5129259;27;20185;-53
2021/07/21 05:15:48;;;;;;;8.20;5.63;;;19.70;1.00;;;;;;5128903;27;20650;-56
2021/07/21 05:18:15;;;;;;;7.07;5.00;;;19.70;1.00;;;;;;5128945;27;20443;-53
2021/07/21 05:20:41;;;;;;;7.60;5.30;;;19.50;1.00;;;;;;5130078;27;20519;-54
2021/07/21 05:23:07;;;;;;;6.03;4.87;;;19.80;1.00;;;;;;5127910;27;20435;-56
2021/07/21 05:25:35;;;;;;;5.40;4.90;;;20.00;1.00;;;;;;5131392;27;20435;-53
2021/07/21 05:28:09;;;;;;;5.60;5.10;;;20.00;1.00;;;;;;5131130;27;20409;-56
2021/07/21 05:30:35;;;;;;;8.10;5.80;;;20.10;1.00;;;;;;5128700;27;20469;-54
2021/07/21 05:33:01;;;;;;;6.10;5.50;;;20.20;1.00;;;;;;5128085;27;20783;-56
2021/07/21 05:35:27;;;;;;;6.40;5.73;;;20.10;1.00;;;;;;5127091;27;20443;-53
2021/07/21 05:37:53;;;;;;;5.80;5.10;;;20.10;1.00;;;;;;5127469;27;20232;-54
2021/07/21 05:40:18;;;;;;;8.33;6.00;;;20.00;1.00;;;;;;5131973;27;20268;-57
2021/07/21 05:42:44;;;;;;;6.37;4.87;;;19.90;1.00;;;;;;5128406;27;20546;-55
2021/07/21 05:45:10;;;;;;;6.27;5.67;;;19.90;1.00;;;;;;5126745;27;20574;-54
2021/07/21 05:47:36;;;;;;;8.90;5.60;;;19.80;1.00;;;;;;5128410;27;20547;-54
2021/07/21 05:50:02;;;;;;;7.80;6.07;;;20.00;1.00;;;;;;5130817;27;20446;-53
2021/07/21 05:52:27;;;;;;;5.80;5.20;;;20.00;1.00;;;;;;5112733;27;20217;-55
2021/07/21 05:54:53;;;;;;;5.57;5.07;;;19.80;1.00;;;;;;5131639;27;20991;-56
2021/07/21 05:57:18;;;;;;;8.43;6.40;;;19.90;1.00;;;;;;5123355;27;20255;-55
2021/07/21 05:59:44;;;;;;;8.00;5.50;;;20.10;1.00;;;;;;5127281;27;20205;-54
2021/07/21 06:02:09;;;;;;;8.13;5.37;;;20.20;1.00;;;;;;5130334;27;20242;-53
2021/07/21 06:04:35;;;;;;;6.53;5.50;;;20.20;1.00;;;;;;5125807;27;20188;-54
2021/07/21 06:07:00;;;;;;;5.90;5.30;;;20.40;1.00;;;;;;5131613;27;20181;-54
2021/07/21 06:09:26;;;;;;;9.37;5.63;;;20.30;1.00;;;;;;5128799;27;20188;-54
2021/07/21 06:11:52;;;;;;;5.97;5.37;;;20.30;1.00;;;;;;5127103;27;20214;-55
2021/07/21 06:14:18;;;;;;;6.50;4.83;;;20.30;1.00;;;;;;5129194;27;20435;-54
2021/07/21 06:16:43;;;;;;;7.93;5.67;;;20.40;1.00;;;;;;5127027;27;20721;-53
2021/07/21 06:19:08;;;;;;;5.80;5.00;;;20.50;1.00;;;;;;5129285;27;20181;-54
2021/07/21 06:21:34;;;;;;;6.20;4.83;;;20.60;1.00;;;;;;5129851;27;20200;-55
2021/07/21 06:24:00;;;;;;;5.67;5.17;;;20.60;1.00;;;;;;5147929;27;20530;-56
2021/07/21 06:26:25;;;;;;;5.97;5.27;;;20.60;1.00;;;;;;5138686;27;20189;-53
2021/07/21 06:28:51;;;;;;;8.60;5.77;;;20.80;1.00;;;;;;5130790;27;20181;-54
2021/07/21 06:31:17;;;;;;;6.10;5.50;;;20.80;1.00;;;;;;5126381;27;20183;-54
2021/07/21 06:33:43;;;;;;;6.67;5.17;;;21.00;1.00;;;;;;5127444;27;20224;-54
2021/07/21 06:36:09;;;;;;;7.07;5.13;;;21.20;1.00;;;;;;5130650;27;20494;-55
2021/07/21 06:38:34;;;;;;;6.23;5.63;;;21.20;1.00;;;;;;5142905;27;20189;-53
2021/07/21 06:41:01;;;;;;;9.70;6.43;;;21.30;1.00;;;;;;5132092;27;20181;-56
2021/07/21 06:43:26;;;;;;;8.03;5.80;;;21.40;1.00;;;;;;5111530;27;20261;-53
2021/07/21 06:45:52;;;;;;;10.50;6.20;;;21.40;1.00;;;;;;5129946;27;20885;-53
2021/07/21 06:48:17;;;;;;;6.23;5.60;;;21.40;1.00;;;;;;5126933;27;20661;-54
2021/07/21 06:50:43;;;;;;;9.83;5.77;;;21.40;1.00;;;;;;5129221;27;20178;-54
2021/07/21 06:53:08;;;;;;;6.20;5.10;;;21.50;1.00;;;;;;5128437;27;20584;-53
2021/07/21 06:55:34;;;;;;;5.53;5.03;;;21.30;1.00;;;;;;5129954;27;20177;-53
2021/07/21 06:58:01;;;;;;;7.40;5.67;;;21.60;1.00;;;;;;5129540;27;20193;-54
2021/07/21 07:00:27;;;;;;;6.83;6.10;;;21.70;1.00;;;;;;5129668;27;20190;-54
2021/07/21 07:02:52;;;;;;;8.73;5.77;;;21.90;1.00;;;;;;5130023;27;20987;-53
2021/07/21 07:05:18;;;;;;;8.57;6.30;;;22.10;1.00;;;;;;5128498;27;20188;-52
2021/07/21 07:07:43;;;;;;;6.90;6.20;;;22.10;1.00;;;;;;5130743;27;20205;-53
2021/07/21 07:10:10;;;;;;;8.23;5.57;;;21.90;1.00;;;;;;5134338;27;20186;-53
2021/07/21 07:12:36;;;;;;;6.90;6.03;;;21.70;1.00;;;;;;5133776;27;20185;-53
2021/07/21 07:15:04;;;;;;;7.17;6.40;;;21.80;1.00;;;;;;5133967;27;20413;-55
2021/07/21 07:17:30;;;;;;;7.30;6.37;;;21.90;1.00;;;;;;5130614;27;20501;-54
2021/07/21 07:19:55;;;;;;;6.23;5.63;;;21.80;1.00;;;;;;5131738;27;20956;-55
2021/07/21 07:22:21;;;;;;;5.90;5.20;;;21.70;1.00;;;;;;5133634;27;20792;-56
2021/07/21 07:24:47;;;;;;;6.13;5.53;;;21.80;1.00;;;;;;5133834;27;20223;-53
2021/07/21 07:27:12;;;;;;;9.23;5.87;;;22.00;1.00;;;;;;5131612;27;20182;-55
2021/07/21 07:29:38;;;;;;;7.70;5.37;;;22.10;1.00;;;;;;5130592;27;20799;-56
2021/07/21 07:32:04;;;;;;;6.17;5.50;;;22.30;1.00;;;;;;5134305;27;20208;-54
2021/07/21 07:34:29;;;;;;;6.73;6.10;;;22.40;1.00;;;;;;5130008;27;20182;-55
2021/07/21 07:36:55;;;;;;;7.60;6.10;;;22.60;1.00;;;;;;5130347;27;20213;-55
2021/07/21 07:39:21;;;;;;;7.33;6.10;;;22.70;1.00;;;;;;5133620;27;20181;-54
2021/07/21 07:41:47;;;;;;;7.70;5.80;;;22.70;1.00;;;;;;5115739;27;20185;-56
2021/07/21 07:44:13;;;;;;;9.13;6.23;;;22.60;1.00;;;;;;5132225;27;20447;-56
2021/07/21 07:46:39;;;;;;;7.90;5.93;;;22.70;1.00;;;;;;5132567;27;20471;-54
2021/07/21 07:49:06;;;;;;;7.40;6.33;;;22.80;1.00;;;;;;5131496;27;20185;-53
2021/07/21 07:51:33;;;;;;;6.97;6.17;;;22.70;1.00;;;;;;5130414;27;20553;-53
2021/07/21 07:53:59;;;;;;;7.07;6.37;;;22.70;1.00;;;;;;5115110;27;20439;-56
2021/07/21 07:56:25;;;;;;;7.23;5.93;;;22.90;1.00;;;;;;5132193;27;20467;-54
2021/07/21 07:58:51;;;;;;;7.17;6.47;;;23.10;1.00;;;;;;5128669;27;20193;-55
2021/07/21 08:01:17;;;;;;;9.40;5.60;;;25.70;1.00;;;;;;5132734;27;20796;-56
2021/07/21 08:03:42;;;;;;;7.13;6.13;;;22.70;1.00;;;;;;5131576;27;20587;-55
2021/07/21 08:06:08;;;;;;;11.00;6.83;;;22.60;1.00;;;;;;5129481;27;20177;-55
2021/07/21 08:08:33;;;;;;;7.57;6.40;;;22.90;1.00;;;;;;5111859;27;20317;-55
2021/07/21 08:11:00;;;;;;;6.90;6.20;;;22.80;1.00;;;;;;5133471;27;20181;-56
2021/07/21 08:13:26;;;;;;;7.20;5.83;;;22.90;1.00;;;;;;5132662;27;20182;-54
2021/07/21 08:15:52;;;;;;;6.77;5.83;;;23.00;1.00;;;;;;5138175;27;20441;-54
2021/07/21 08:18:17;;;;;;;10.40;6.27;;;23.30;1.00;;;;;;5153476;27;20458;-54
2021/07/21 08:20:44;;;;;;;6.20;5.60;;;23.60;1.00;;;;;;5153923;27;20181;-55
2021/07/21 08:23:10;;;;;;;8.03;6.53;;;23.90;1.00;;;;;;5153966;27;20221;-55
2021/07/21 08:25:36;;;;;;;7.30;6.50;;;24.00;1.00;;;;;;5152129;27;20433;-55
2021/07/21 08:28:02;;;;;;;7.93;6.10;;;24.00;1.00;;;;;;5133097;27;20932;-54
2021/07/21 08:30:28;;;;;;;7.23;6.50;;;23.90;1.00;;;;;;5133314;27;20264;-56
2021/07/21 08:32:54;;;;;;;8.77;6.73;;;24.20;1.00;;;;;;5132993;27;20435;-53
2021/07/21 08:35:22;;;;;;;9.70;6.43;;;24.00;1.00;;;;;;5133179;27;20217;-56
2021/07/21 08:37:48;;;;;;;6.50;5.53;;;24.30;1.00;;;;;;5132832;27;20462;-55
2021/07/21 08:40:16;;;;;;;7.40;5.80;;;24.40;1.00;;;;;;5132947;27;20487;-57
2021/07/21 08:42:42;;;;;;;6.63;5.93;;;24.50;1.00;;;;;;5132122;27;20503;-55
2021/07/21 08:45:09;;;;;;;9.43;7.20;;;24.50;1.00;;;;;;5130716;27;20438;-55
2021/07/21 08:47:35;;;;;;;6.87;5.90;;;24.30;1.00;;;;;;5132703;27;20208;-55
2021/07/21 08:50:03;;;;;;;8.57;7.07;;;24.20;1.00;;;;;;5132950;27;20466;-53
2021/07/21 08:52:30;;;;;;;7.53;6.80;;;24.10;1.00;;;;;;5135237;27;20217;-55
2021/07/21 08:54:58;;;;;;;9.17;7.30;;;24.40;1.00;;;;;;5112008;27;20979;-54
2021/07/21 08:57:25;;;;;;;8.77;7.20;;;24.30;1.00;;;;;;5111910;27;20466;-54
2021/07/21 08:59:52;;;;;;;10.47;7.17;;;24.30;1.00;;;;;;5132775;27;20430;-55
2021/07/21 09:02:18;;;;;;;12.23;7.10;;;24.10;1.00;;;;;;5132496;27;20434;-55
2021/07/21 09:04:43;;;;;;;8.93;7.63;;;24.10;1.00;;;;;;5153324;27;20452;-55
2021/07/21 09:07:09;;;;;;;9.23;6.80;;;23.90;1.00;;;;;;5148233;27;20419;-54
2021/07/21 09:09:35;;;;;;;9.80;7.30;;;24.10;1.00;;;;;;5132871;27;20543;-55
2021/07/21 09:12:01;;;;;;;10.23;7.90;;;24.10;1.00;;;;;;5110228;27;20438;-55
2021/07/21 09:14:28;;;;;;;7.50;6.70;;;24.20;1.00;;;;;;5131121;27;21420;-56
2021/07/21 09:17:23;;;;;;;8.03;6.90;;;24.20;1.00;;;;;;5129579;27;20470;-55
2021/07/21 09:19:50;;;;;;;9.67;8.13;;;24.40;1.00;;;;;;5110557;27;20439;-56
2021/07/21 09:22:24;;;;;;;7.80;6.60;;;24.50;1.00;;;;;;5129880;27;20442;-55
2021/07/21 09:25:10;;;;;;;8.67;7.00;;;24.60;1.00;;;;;;5126994;27;20916;-57
2021/07/21 09:27:37;;;;;;;8.90;8.03;;;25.00;1.00;;;;;;5129242;27;20434;-55
2021/07/21 09:30:04;;;;;;;9.27;7.33;;;25.40;1.00;;;;;;5128096;27;20518;-56
2021/07/21 09:32:29;;;;;;;7.20;6.50;;;25.20;1.00;;;;;;5129049;27;20484;-55
2021/07/21 09:34:55;;;;;;;9.90;7.10;;;25.40;1.00;;;;;;5129190;27;21034;-55
2021/07/21 09:37:22;;;;;;;11.17;8.93;;;25.50;1.00;;;;;;5131780;27;20201;-55
2021/07/21 09:39:50;;;;;;;8.63;7.10;;;25.60;1.00;;;;;;5115003;27;20260;-55
2021/07/21 09:42:17;;;;;;;9.07;7.83;;;25.80;1.00;;;;;;5127019;27;21202;-56
2021/07/21 09:44:45;;;;;;;8.13;7.00;;;26.00;1.00;;;;;;5142065;27;20435;-55
2021/07/21 09:47:21;;;;;;;10.30;7.20;;;26.10;1.00;;;;;;5121369;27;20457;-54
2021/07/21 09:49:47;;;;;;;10.57;7.70;;;26.40;1.00;;;;;;5152447;27;20524;-55
2021/07/21 09:52:18;;;;;;;8.73;7.70;;;26.70;1.00;;;;;;5152412;27;20480;-55
2021/07/21 09:55:06;;;;;;;8.70;7.50;;;26.50;1.00;;;;;;5128901;27;20434;-56
2021/07/21 09:57:33;;;;;;;9.80;7.90;;;25.90;1.00;;;;;;5131471;27;20459;-53
2021/07/21 09:59:59;;;;;;;9.37;8.23;;;25.70;1.00;;;;;;5127851;27;20927;-54
2021/07/21 10:02:25;;;;;;;8.17;7.20;;;25.80;1.00;;;;;;5129920;27;20964;-56
2021/07/21 10:04:52;;;;;;;8.13;7.33;;;25.50;1.00;;;;;;5130044;27;20522;-53
2021/07/21 10:10:12;;;;;;;9.23;7.53;;;25.30;1.00;;;;;;5130912;27;20466;-53
2021/07/21 10:12:38;;;;;;;11.80;8.43;;;25.40;1.00;;;;;;5110684;27;20442;-55
2021/07/21 10:15:04;;;;;;;11.50;8.20;;;25.50;1.00;;;;;;5130730;27;20438;-54
2021/07/21 10:17:30;;;;;;;11.73;7.30;;;25.90;1.00;;;;;;5130483;27;20688;-55
2021/07/21 10:19:56;;;;;;;9.87;7.93;;;26.20;1.00;;;;;;5131000;27;20434;-54
2021/07/21 10:22:23;;;;;;;9.97;8.37;;;26.30;1.00;;;;;;5125518;27;20201;-54
2021/07/21 10:24:49;;;;;;;10.13;7.90;;;26.00;1.00;;;;;;5130906;27;20443;-55
2021/07/21 10:27:15;;;;;;;9.70;7.30;;;25.60;1.00;;;;;;5127108;27;20504;-55
2021/07/21 10:29:42;;;;;;;8.37;6.53;;;25.40;1.00;;;;;;5131275;27;20710;-54
2021/07/21 10:32:10;;;;;;;11.13;8.27;;;25.30;1.00;;;;;;5112674;27;20443;-54
2021/07/21 10:34:36;;;;;;;11.40;7.70;;;24.90;1.00;;;;;;5129799;27;20435;-56
2021/07/21 10:37:02;;;;;;;8.77;7.87;;;24.80;1.00;;;;;;5126748;27;20472;-54
2021/07/21 10:39:34;;;;;;;9.37;7.50;;;24.70;1.00;;;;;;5128233;27;20185;-55
2021/07/21 10:42:08;;;;;;;9.00;7.87;;;24.80;1.00;;;;;;5131046;27;20431;-55
2021/07/21 10:44:34;;;;;;;11.27;7.47;;;26.00;1.00;;;;;;5135692;27;20526;-54
2021/07/21 10:47:00;;;;;;;7.43;6.63;;;24.60;1.00;;;;;;5133248;27;20446;-54
2021/07/21 10:49:45;;;;;;;8.17;6.70;;;24.50;1.00;;;;;;5131130;27;20443;-58
2021/07/21 10:52:27;;;;;;;7.97;7.17;;;24.50;1.00;;;;;;5132386;27;20789;-55
2021/07/21 11:00:25;;;;;;;7.50;6.70;;;24.70;1.00;;;;;;5133618;27;20534;-55
2021/07/21 11:02:52;;;;;;;8.30;6.27;;;24.90;1.00;;;;;;5135138;27;20776;-56
2021/07/21 11:05:26;;;;;;;6.60;6.00;;;24.90;1.00;;;;;;5134439;27;20435;-53
2021/07/21 11:07:53;;;;;;;7.33;5.37;;;25.30;1.00;;;;;;5110574;27;20530;-55
2021/07/21 11:10:39;;;;;;;6.33;5.73;;;25.90;1.00;;;;;;5129707;27;20437;-53
2021/07/21 11:13:06;;;;;;;8.90;5.10;;;26.20;1.00;;;;;;5133517;27;20443;-56
2021/07/21 11:15:40;;;;;;;7.40;5.30;;;26.10;1.00;;;;;;5134423;27;20931;-55
2021/07/21 11:18:23;;;;;;;6.03;4.80;;;25.90;1.00;;;;;;5135033;27;20509;-54
2021/07/21 11:21:07;;;;;;;5.10;4.30;;;25.30;1.00;;;;;;5132980;27;20449;-56
2021/07/21 11:23:44;;;;;;;10.40;9.30;;;25.10;1.00;;;;;;5135609;27;20433;-53
2021/07/21 11:26:34;;;;;;;6.60;5.30;;;24.90;1.00;;;;;;5133410;27;20502;-55
2021/07/21 11:29:22;;;;;;;5.70;5.10;;;25.00;1.00;;;;;;5134431;27;20442;-54
2021/07/21 11:31:54;;;;;;;5.77;5.20;;;25.10;1.00;;;;;;5116023;27;20423;-57
2021/07/21 11:34:28;;;;;;;6.23;5.63;;;25.30;1.00;;;;;;5136596;27;20513;-59
2021/07/21 11:37:04;;;;;;;6.10;5.10;;;25.30;1.00;;;;;;5135503;27;21118;-58
2021/07/21 11:39:50;;;;;;;5.70;5.10;;;25.50;1.00;;;;;;5134017;27;20487;-55
2021/07/21 11:42:31;;;;;;;5.07;4.60;;;25.70;1.00;;;;;;5132851;27;20426;-54
2021/07/21 11:45:03;;;;;;;5.50;4.40;;;26.00;1.00;;;;;;5128827;27;20474;-53
2021/07/21 11:47:36;;;;;;;5.13;4.63;;;26.00;1.00;;;;;;5139512;27;20435;-54
2021/07/21 11:50:23;;;;;;;6.83;5.97;;;26.30;1.00;;;;;;5134484;27;20434;-55
2021/07/21 11:52:54;;;;;;;7.33;5.33;;;26.30;1.00;;;;;;5132344;27;20458;-55
2021/07/21 11:55:32;;;;;;;6.03;5.50;;;26.50;1.00;;;;;;5133401;27;20463;-55
2021/07/21 11:57:58;;;;;;;7.23;5.40;;;26.90;1.00;;;;;;5112844;27;20466;-54
2021/07/21 12:00:25;;;;;;;6.30;5.70;;;26.90;1.00;;;;;;5150732;27;20787;-55
2021/07/21 12:03:02;;;;;;;8.53;6.80;;;27.10;1.00;;;;;;5125365;27;20780;-54
2021/07/21 12:05:28;;;;;;;5.87;5.27;;;27.20;1.00;;;;;;5106102;27;20435;-53
2021/07/21 12:08:00;;;;;;;6.37;5.70;;;27.10;1.00;;;;;;5131523;27;20435;-56
2021/07/21 12:10:25;;;;;;;9.33;6.03;;;26.60;1.00;;;;;;5129738;27;20804;-53
2021/07/21 12:12:53;;;;;;;7.13;6.13;;;26.40;1.00;;;;;;5128731;27;20538;-55
2021/07/21 12:15:18;;;;;;;6.80;5.50;;;26.40;1.00;;;;;;5133374;27;20181;-53
2021/07/21 12:17:44;;;;;;;11.40;7.00;;;26.70;1.00;;;;;;5133356;27;20466;-53
2021/07/21 12:20:13;;;;;;;6.00;5.20;;;26.80;1.00;;;;;;5110865;27;20653;-55
2021/07/21 12:22:40;;;;;;;7.33;6.03;;;26.60;1.00;;;;;;5132820;27;20187;-55
2021/07/21 12:25:15;;;;;;;7.80;5.50;;;26.50;1.00;;;;;;5137080;27;20533;-54
2021/07/21 12:27:48;;;;;;;6.00;5.40;;;26.60;1.00;;;;;;5144279;27;20457;-56
2021/07/21 12:30:17;;;;;;;6.00;5.40;;;26.40;1.00;;;;;;5132697;27;20871;-55
2021/07/21 12:32:45;;;;;;;6.37;5.47;;;26.20;1.00;;;;;;5131589;27;21015;-54
2021/07/21 12:35:12;;;;;;;7.03;5.33;;;26.30;1.00;;;;;;5132530;27;20454;-55
2021/07/21 12:37:47;;;;;;;8.00;6.00;;;27.00;1.00;;;;;;5129642;27;20456;-54
2021/07/21 12:40:21;;;;;;;10.57;5.90;;;27.70;1.00;;;;;;5131799;27;20443;-54
2021/07/21 12:42:50;;;;;;;6.63;5.93;;;27.90;1.00;;;;;;5127851;27;20511;-56
2021/07/21 12:45:17;;;;;;;5.93;5.30;;;27.90;1.00;;;;;;5132455;27;20478;-54
2021/07/21 12:47:46;;;;;;;7.20;5.47;;;27.60;1.00;;;;;;5132735;27;20940;-54
2021/07/21 12:50:13;;;;;;;6.57;5.87;;;27.60;1.00;;;;;;5130525;27;20458;-53
2021/07/21 12:52:52;;;;;;;7.17;5.17;;;27.70;1.00;;;;;;5132621;27;20470;-54
2021/07/21 12:55:29;;;;;;;7.20;6.00;;;27.90;1.00;;;;;;5129321;27;20963;-54
2021/07/21 12:57:58;;;;;;;5.27;4.77;;;28.00;1.00;;;;;;5128272;27;20971;-55
2021/07/21 13:00:29;;;;;;;6.20;5.40;;;28.10;1.00;;;;;;5131355;27;20420;-55
2021/07/21 13:03:09;;;;;;;6.20;5.60;;;27.90;1.00;;;;;;5135054;27;20901;-54
2021/07/21 13:05:48;;;;;;;7.27;6.10;;;27.80;1.00;;;;;;5147765;27;20431;-54
2021/07/21 13:08:20;;;;;;;8.13;5.50;;;27.80;1.00;;;;;;5129520;27;20928;-54
2021/07/21 13:10:49;;;;;;;6.40;5.10;;;27.80;1.00;;;;;;5127750;27;20440;-56
2021/07/21 13:13:25;;;;;;;6.00;5.30;;;27.90;1.00;;;;;;5111942;27;20522;-53
2021/07/21 13:16:09;;;;;;;5.30;4.40;;;27.60;1.00;;;;;;5128720;27;20438;-55